sensor_id;sensor_type;location;lat;lon;timestamp;temperature;humidity
43151;DHT22;28755;51.478;5.702;2022-11-12T00:00:23;6.50;99.90
43151;DHT22;28755;51.478;5.702;2022-11-12T00:02:49;6.40;99.90
43151;DHT22;28755;51.478;5.702;2022-11-12T00:05:14;6.40;99.90
43151;DHT22;28755;51.478;5.702;2022-11-12T00:07:40;6.40;99.90
43151;DHT22;28755;51.478;5.702;2022-11-12T00:10:06;6.30;99.90
43151;DHT22;28755;51.478;5.702;2022-11-12T00:12:32;6.30;99.90
43151;DHT22;28755;51.478;5.702;2022-11-12T00:14:57;6.40;99.90
43151;DHT22;28755;51.478;5.702;2022-11-12T00:17:23;6.40;99.90
43151;DHT22;28755;51.478;5.702;2022-11-12T00:19:48;6.50;99.90
43151;DHT22;28755;51.478;5.702;2022-11-12T00:22:14;6.60;99.90
43151;DHT22;28755;51.478;5.702;2022-11-12T00:24:40;6.60;99.90
43151;DHT22;28755;51.478;5.702;2022-11-12T00:27:05;6.70;99.90
43151;DHT22;28755;51.478;5.702;2022-11-12T00:29:31;6.70;99.90
43151;DHT22;28755;51.478;5.702;2022-11-12T00:31:57;6.60;99.90
43151;DHT22;28755;51.478;5.702;2022-11-12T00:34:22;6.60;99.90
43151;DHT22;28755;51.478;5.702;2022-11-12T00:36:48;6.60;99.90
43151;DHT22;28755;51.478;5.702;2022-11-12T00:39:13;6.60;99.90
43151;DHT22;28755;51.478;5.702;2022-11-12T00:41:39;6.60;99.90
43151;DHT22;28755;51.478;5.702;2022-11-12T00:44:05;6.40;99.90
43151;DHT22;28755;51.478;5.702;2022-11-12T00:46:30;6.40;99.90
43151;DHT22;28755;51.478;5.702;2022-11-12T00:48:56;6.40;99.90
43151;DHT22;28755;51.478;5.702;2022-11-12T00:51:21;6.30;99.90
43151;DHT22;28755;51.478;5.702;2022-11-12T00:53:47;6.30;99.90
43151;DHT22;28755;51.478;5.702;2022-11-12T00:56:14;6.30;99.90
43151;DHT22;28755;51.478;5.702;2022-11-12T00:58:39;6.20;99.90
43151;DHT22;28755;51.478;5.702;2022-11-12T01:01:11;6.20;99.90
43151;DHT22;28755;51.478;5.702;2022-11-12T01:03:38;6.30;99.90
43151;DHT22;28755;51.478;5.702;2022-11-12T01:06:21;6.20;99.90
43151;DHT22;28755;51.478;5.702;2022-11-12T01:08:47;6.20;99.90
43151;DHT22;28755;51.478;5.702;2022-11-12T01:11:21;6.10;99.90
43151;DHT22;28755;51.478;5.702;2022-11-12T01:14:02;6.20;99.90
43151;DHT22;28755;51.478;5.702;2022-11-12T01:16:30;6.00;99.90
43151;DHT22;28755;51.478;5.702;2022-11-12T01:19:00;6.00;99.90
43151;DHT22;28755;51.478;5.702;2022-11-12T01:21:28;6.00;99.90
43151;DHT22;28755;51.478;5.702;2022-11-12T01:23:56;6.00;99.90
43151;DHT22;28755;51.478;5.702;2022-11-12T01:26:22;6.00;99.90
43151;DHT22;28755;51.478;5.702;2022-11-12T01:28:48;5.90;99.90
43151;DHT22;28755;51.478;5.702;2022-11-12T01:31:16;5.90;99.90
43151;DHT22;28755;51.478;5.702;2022-11-12T01:33:43;5.90;99.90
43151;DHT22;28755;51.478;5.702;2022-11-12T01:36:10;5.90;99.90
43151;DHT22;28755;51.478;5.702;2022-11-12T01:38:38;5.80;99.90
43151;DHT22;28755;51.478;5.702;2022-11-12T01:41:06;5.80;99.90
43151;DHT22;28755;51.478;5.702;2022-11-12T01:43:31;5.70;99.90
43151;DHT22;28755;51.478;5.702;2022-11-12T01:45:59;5.70;99.90
43151;DHT22;28755;51.478;5.702;2022-11-12T01:48:36;5.70;99.90
43151;DHT22;28755;51.478;5.702;2022-11-12T01:51:03;5.60;99.90
43151;DHT22;28755;51.478;5.702;2022-11-12T01:53:31;5.60;99.90
43151;DHT22;28755;51.478;5.702;2022-11-12T01:55:59;5.60;99.90
43151;DHT22;28755;51.478;5.702;2022-11-12T01:58:28;5.50;99.90
43151;DHT22;28755;51.478;5.702;2022-11-12T02:00:55;5.60;99.90
43151;DHT22;28755;51.478;5.702;2022-11-12T02:03:23;5.60;99.90
43151;DHT22;28755;51.478;5.702;2022-11-12T02:05:53;5.60;99.90
43151;DHT22;28755;51.478;5.702;2022-11-12T02:08:22;5.60;99.90
43151;DHT22;28755;51.478;5.702;2022-11-12T02:10:49;5.50;99.90
43151;DHT22;28755;51.478;5.702;2022-11-12T02:13:16;5.50;99.90
43151;DHT22;28755;51.478;5.702;2022-11-12T02:16:02;5.50;99.90
43151;DHT22;28755;51.478;5.702;2022-11-12T02:18:28;5.50;99.90
43151;DHT22;28755;51.478;5.702;2022-11-12T02:20:56;5.40;99.90
43151;DHT22;28755;51.478;5.702;2022-11-12T02:23:22;5.40;99.90
43151;DHT22;28755;51.478;5.702;2022-11-12T02:25:48;5.40;99.90
43151;DHT22;28755;51.478;5.702;2022-11-12T02:28:14;5.50;99.90
43151;DHT22;28755;51.478;5.702;2022-11-12T02:30:44;5.50;99.90
43151;DHT22;28755;51.478;5.702;2022-11-12T02:33:09;5.40;99.90
43151;DHT22;28755;51.478;5.702;2022-11-12T02:35:35;5.40;99.90
43151;DHT22;28755;51.478;5.702;2022-11-12T02:38:01;5.40;99.90
43151;DHT22;28755;51.478;5.702;2022-11-12T02:40:27;5.40;99.90
43151;DHT22;28755;51.478;5.702;2022-11-12T02:42:52;5.40;99.90
43151;DHT22;28755;51.478;5.702;2022-11-12T02:45:18;5.30;99.90
43151;DHT22;28755;51.478;5.702;2022-11-12T02:47:44;5.30;99.90
43151;DHT22;28755;51.478;5.702;2022-11-12T02:50:10;5.30;99.90
43151;DHT22;28755;51.478;5.702;2022-11-12T02:52:37;5.30;99.90
43151;DHT22;28755;51.478;5.702;2022-11-12T02:55:05;5.40;99.90
43151;DHT22;28755;51.478;5.702;2022-11-12T02:57:31;5.30;99.90
43151;DHT22;28755;51.478;5.702;2022-11-12T02:59:56;5.30;99.90
43151;DHT22;28755;51.478;5.702;2022-11-12T03:02:22;5.30;99.90
43151;DHT22;28755;51.478;5.702;2022-11-12T03:04:47;5.30;99.90
43151;DHT22;28755;51.478;5.702;2022-11-12T03:07:13;5.30;99.90
43151;DHT22;28755;51.478;5.702;2022-11-12T03:09:38;5.40;99.90
43151;DHT22;28755;51.478;5.702;2022-11-12T03:12:04;5.20;99.90
43151;DHT22;28755;51.478;5.702;2022-11-12T03:14:30;5.20;99.90
43151;DHT22;28755;51.478;5.702;2022-11-12T03:16:55;5.30;99.90
43151;DHT22;28755;51.478;5.702;2022-11-12T03:19:21;5.20;99.90
43151;DHT22;28755;51.478;5.702;2022-11-12T03:21:46;5.20;99.90
43151;DHT22;28755;51.478;5.702;2022-11-12T03:24:12;5.30;99.90
43151;DHT22;28755;51.478;5.702;2022-11-12T03:26:38;5.30;99.90
43151;DHT22;28755;51.478;5.702;2022-11-12T03:29:03;5.20;99.90
43151;DHT22;28755;51.478;5.702;2022-11-12T03:31:29;5.20;99.90
43151;DHT22;28755;51.478;5.702;2022-11-12T03:33:54;5.20;99.90
43151;DHT22;28755;51.478;5.702;2022-11-12T03:36:20;5.30;99.90
43151;DHT22;28755;51.478;5.702;2022-11-12T03:38:45;5.20;99.90
43151;DHT22;28755;51.478;5.702;2022-11-12T03:41:11;5.10;99.90
43151;DHT22;28755;51.478;5.702;2022-11-12T03:43:37;5.10;99.90
43151;DHT22;28755;51.478;5.702;2022-11-12T03:46:02;5.10;99.90
43151;DHT22;28755;51.478;5.702;2022-11-12T03:48:28;5.10;99.90
43151;DHT22;28755;51.478;5.702;2022-11-12T03:50:57;5.10;99.90
43151;DHT22;28755;51.478;5.702;2022-11-12T03:53:23;5.20;99.90
43151;DHT22;28755;51.478;5.702;2022-11-12T03:55:49;5.10;99.90
43151;DHT22;28755;51.478;5.702;2022-11-12T03:58:14;5.10;99.90
43151;DHT22;28755;51.478;5.702;2022-11-12T04:00:40;5.10;99.90
43151;DHT22;28755;51.478;5.702;2022-11-12T04:03:06;5.10;99.90
43151;DHT22;28755;51.478;5.702;2022-11-12T04:05:31;4.90;99.90
43151;DHT22;28755;51.478;5.702;2022-11-12T04:08:18;5.10;99.90
43151;DHT22;28755;51.478;5.702;2022-11-12T04:11:10;5.10;99.90
43151;DHT22;28755;51.478;5.702;2022-11-12T04:13:38;5.10;99.90
43151;DHT22;28755;51.478;5.702;2022-11-12T04:16:09;5.10;99.90
43151;DHT22;28755;51.478;5.702;2022-11-12T04:18:55;5.10;99.90
43151;DHT22;28755;51.478;5.702;2022-11-12T04:21:40;5.10;99.90
43151;DHT22;28755;51.478;5.702;2022-11-12T04:24:25;5.20;99.90
43151;DHT22;28755;51.478;5.702;2022-11-12T04:27:13;5.10;99.90
43151;DHT22;28755;51.478;5.702;2022-11-12T04:29:39;5.00;99.90
43151;DHT22;28755;51.478;5.702;2022-11-12T04:32:23;5.00;99.90
43151;DHT22;28755;51.478;5.702;2022-11-12T04:34:50;5.00;99.90
43151;DHT22;28755;51.478;5.702;2022-11-12T04:37:16;5.10;99.90
43151;DHT22;28755;51.478;5.702;2022-11-12T04:39:41;5.00;99.90
43151;DHT22;28755;51.478;5.702;2022-11-12T04:42:08;5.10;99.90
43151;DHT22;28755;51.478;5.702;2022-11-12T04:44:53;5.00;99.90
43151;DHT22;28755;51.478;5.702;2022-11-12T04:47:45;5.00;99.90
43151;DHT22;28755;51.478;5.702;2022-11-12T04:50:16;4.90;99.90
43151;DHT22;28755;51.478;5.702;2022-11-12T04:52:42;4.90;99.90
43151;DHT22;28755;51.478;5.702;2022-11-12T04:55:09;4.80;99.90
43151;DHT22;28755;51.478;5.702;2022-11-12T04:57:35;4.80;99.90
43151;DHT22;28755;51.478;5.702;2022-11-12T05:00:02;4.80;99.90
43151;DHT22;28755;51.478;5.702;2022-11-12T05:02:28;4.80;99.90
43151;DHT22;28755;51.478;5.702;2022-11-12T05:04:53;4.80;99.90
43151;DHT22;28755;51.478;5.702;2022-11-12T05:07:19;4.80;99.90
43151;DHT22;28755;51.478;5.702;2022-11-12T05:09:44;4.70;99.90
43151;DHT22;28755;51.478;5.702;2022-11-12T05:12:10;4.70;99.90
43151;DHT22;28755;51.478;5.702;2022-11-12T05:14:36;4.80;99.90
43151;DHT22;28755;51.478;5.702;2022-11-12T05:17:02;4.60;99.90
43151;DHT22;28755;51.478;5.702;2022-11-12T05:19:27;4.60;99.90
43151;DHT22;28755;51.478;5.702;2022-11-12T05:21:53;4.60;99.90
43151;DHT22;28755;51.478;5.702;2022-11-12T05:24:32;4.60;99.90
43151;DHT22;28755;51.478;5.702;2022-11-12T05:26:58;4.60;99.90
43151;DHT22;28755;51.478;5.702;2022-11-12T05:29:24;4.60;99.90
43151;DHT22;28755;51.478;5.702;2022-11-12T05:31:49;4.60;99.90
43151;DHT22;28755;51.478;5.702;2022-11-12T05:34:15;4.60;99.90
43151;DHT22;28755;51.478;5.702;2022-11-12T05:36:40;4.70;99.90
43151;DHT22;28755;51.478;5.702;2022-11-12T05:39:06;4.60;99.90
43151;DHT22;28755;51.478;5.702;2022-11-12T05:41:32;4.60;99.90
43151;DHT22;28755;51.478;5.702;2022-11-12T05:43:57;4.60;99.90
43151;DHT22;28755;51.478;5.702;2022-11-12T05:46:23;4.60;99.90
43151;DHT22;28755;51.478;5.702;2022-11-12T05:48:48;4.50;99.90
43151;DHT22;28755;51.478;5.702;2022-11-12T05:51:14;4.60;99.90
43151;DHT22;28755;51.478;5.702;2022-11-12T05:53:40;4.50;99.90
43151;DHT22;28755;51.478;5.702;2022-11-12T05:56:07;4.50;99.90
43151;DHT22;28755;51.478;5.702;2022-11-12T05:58:35;4.50;99.90
43151;DHT22;28755;51.478;5.702;2022-11-12T06:01:00;4.50;99.90
43151;DHT22;28755;51.478;5.702;2022-11-12T06:03:26;4.50;99.90
43151;DHT22;28755;51.478;5.702;2022-11-12T06:05:52;4.50;99.90
43151;DHT22;28755;51.478;5.702;2022-11-12T06:08:18;4.50;99.90
43151;DHT22;28755;51.478;5.702;2022-11-12T06:10:51;4.50;99.90
43151;DHT22;28755;51.478;5.702;2022-11-12T06:13:17;4.40;99.90
43151;DHT22;28755;51.478;5.702;2022-11-12T06:15:43;4.40;99.90
43151;DHT22;28755;51.478;5.702;2022-11-12T06:18:09;4.40;99.90
43151;DHT22;28755;51.478;5.702;2022-11-12T06:20:35;4.40;99.90
43151;DHT22;28755;51.478;5.702;2022-11-12T06:23:01;4.40;99.90
43151;DHT22;28755;51.478;5.702;2022-11-12T06:25:26;4.50;99.90
43151;DHT22;28755;51.478;5.702;2022-11-12T06:27:52;4.40;99.90
43151;DHT22;28755;51.478;5.702;2022-11-12T06:30:18;4.30;99.90
43151;DHT22;28755;51.478;5.702;2022-11-12T06:32:47;4.30;99.90
43151;DHT22;28755;51.478;5.702;2022-11-12T06:35:13;4.30;99.90
43151;DHT22;28755;51.478;5.702;2022-11-12T06:37:39;4.20;99.90
43151;DHT22;28755;51.478;5.702;2022-11-12T06:40:06;4.30;99.90
43151;DHT22;28755;51.478;5.702;2022-11-12T06:42:32;4.30;99.90
43151;DHT22;28755;51.478;5.702;2022-11-12T06:44:58;4.30;99.90
43151;DHT22;28755;51.478;5.702;2022-11-12T06:47:23;4.20;99.90
43151;DHT22;28755;51.478;5.702;2022-11-12T06:49:49;4.30;99.90
43151;DHT22;28755;51.478;5.702;2022-11-12T06:52:15;4.30;99.90
43151;DHT22;28755;51.478;5.702;2022-11-12T06:54:41;4.20;99.90
43151;DHT22;28755;51.478;5.702;2022-11-12T06:57:06;4.30;99.90
43151;DHT22;28755;51.478;5.702;2022-11-12T06:59:33;4.20;99.90
43151;DHT22;28755;51.478;5.702;2022-11-12T07:01:58;4.30;99.90
43151;DHT22;28755;51.478;5.702;2022-11-12T07:04:24;4.30;99.90
43151;DHT22;28755;51.478;5.702;2022-11-12T07:06:50;4.30;99.90
43151;DHT22;28755;51.478;5.702;2022-11-12T07:09:15;4.30;99.90
43151;DHT22;28755;51.478;5.702;2022-11-12T07:11:41;4.40;99.90
43151;DHT22;28755;51.478;5.702;2022-11-12T07:14:07;4.40;99.90
43151;DHT22;28755;51.478;5.702;2022-11-12T07:16:33;4.50;99.90
43151;DHT22;28755;51.478;5.702;2022-11-12T07:18:59;4.50;99.90
43151;DHT22;28755;51.478;5.702;2022-11-12T07:21:25;4.60;99.90
43151;DHT22;28755;51.478;5.702;2022-11-12T07:23:51;4.70;99.90
43151;DHT22;28755;51.478;5.702;2022-11-12T07:26:19;4.90;99.90
43151;DHT22;28755;51.478;5.702;2022-11-12T07:28:47;5.30;99.90
43151;DHT22;28755;51.478;5.702;2022-11-12T07:31:14;5.90;99.90
43151;DHT22;28755;51.478;5.702;2022-11-12T07:33:40;6.20;99.90
43151;DHT22;28755;51.478;5.702;2022-11-12T07:38:35;6.50;99.90
43151;DHT22;28755;51.478;5.702;2022-11-12T07:41:11;6.40;99.90
43151;DHT22;28755;51.478;5.702;2022-11-12T07:43:39;6.40;99.90
43151;DHT22;28755;51.478;5.702;2022-11-12T07:46:11;6.40;99.90
43151;DHT22;28755;51.478;5.702;2022-11-12T07:48:38;6.40;99.90
43151;DHT22;28755;51.478;5.702;2022-11-12T07:51:18;6.90;99.90
43151;DHT22;28755;51.478;5.702;2022-11-12T07:53:44;7.50;99.90
43151;DHT22;28755;51.478;5.702;2022-11-12T07:56:12;7.80;99.90
43151;DHT22;28755;51.478;5.702;2022-11-12T07:58:38;7.80;99.90
43151;DHT22;28755;51.478;5.702;2022-11-12T08:01:18;7.70;99.90
43151;DHT22;28755;51.478;5.702;2022-11-12T08:03:46;7.60;99.90
43151;DHT22;28755;51.478;5.702;2022-11-12T08:06:12;7.40;99.90
43151;DHT22;28755;51.478;5.702;2022-11-12T08:08:38;7.30;99.90
43151;DHT22;28755;51.478;5.702;2022-11-12T08:11:03;7.30;99.90
43151;DHT22;28755;51.478;5.702;2022-11-12T08:13:29;7.40;99.90
43151;DHT22;28755;51.478;5.702;2022-11-12T08:15:58;7.50;99.90
43151;DHT22;28755;51.478;5.702;2022-11-12T08:18:24;7.70;99.90
43151;DHT22;28755;51.478;5.702;2022-11-12T08:20:50;7.80;99.90
43151;DHT22;28755;51.478;5.702;2022-11-12T08:23:15;7.80;99.90
43151;DHT22;28755;51.478;5.702;2022-11-12T08:25:41;7.80;99.90
43151;DHT22;28755;51.478;5.702;2022-11-12T08:28:06;7.90;99.90
43151;DHT22;28755;51.478;5.702;2022-11-12T08:30:33;8.20;99.90
43151;DHT22;28755;51.478;5.702;2022-11-12T08:33:04;8.40;99.90
43151;DHT22;28755;51.478;5.702;2022-11-12T08:35:31;8.60;99.90
43151;DHT22;28755;51.478;5.702;2022-11-12T08:38:01;8.90;99.90
43151;DHT22;28755;51.478;5.702;2022-11-12T08:40:28;9.50;99.90
43151;DHT22;28755;51.478;5.702;2022-11-12T08:42:59;10.10;99.90
43151;DHT22;28755;51.478;5.702;2022-11-12T08:45:25;10.40;99.90
43151;DHT22;28755;51.478;5.702;2022-11-12T08:47:51;10.80;99.90
43151;DHT22;28755;51.478;5.702;2022-11-12T08:50:17;11.00;99.90
43151;DHT22;28755;51.478;5.702;2022-11-12T08:52:42;12.10;99.90
43151;DHT22;28755;51.478;5.702;2022-11-12T08:55:08;13.50;99.90
43151;DHT22;28755;51.478;5.702;2022-11-12T08:57:40;14.80;99.90
43151;DHT22;28755;51.478;5.702;2022-11-12T09:00:10;16.10;99.90
43151;DHT22;28755;51.478;5.702;2022-11-12T09:02:37;17.50;99.90
43151;DHT22;28755;51.478;5.702;2022-11-12T09:05:03;18.60;99.90
43151;DHT22;28755;51.478;5.702;2022-11-12T09:07:29;19.30;99.90
43151;DHT22;28755;51.478;5.702;2022-11-12T09:09:54;19.90;99.90
43151;DHT22;28755;51.478;5.702;2022-11-12T09:12:20;20.00;99.90
43151;DHT22;28755;51.478;5.702;2022-11-12T09:14:46;19.80;99.90
43151;DHT22;28755;51.478;5.702;2022-11-12T09:17:12;19.70;99.90
43151;DHT22;28755;51.478;5.702;2022-11-12T09:19:37;20.40;99.90
43151;DHT22;28755;51.478;5.702;2022-11-12T09:22:03;20.90;99.90
43151;DHT22;28755;51.478;5.702;2022-11-12T09:24:29;21.50;99.90
43151;DHT22;28755;51.478;5.702;2022-11-12T09:26:55;21.90;99.90
43151;DHT22;28755;51.478;5.702;2022-11-12T09:29:20;22.70;99.90
43151;DHT22;28755;51.478;5.702;2022-11-12T09:31:46;23.40;99.90
43151;DHT22;28755;51.478;5.702;2022-11-12T09:34:12;24.30;99.20
43151;DHT22;28755;51.478;5.702;2022-11-12T09:36:38;24.50;99.90
43151;DHT22;28755;51.478;5.702;2022-11-12T09:39:03;24.40;97.60
43151;DHT22;28755;51.478;5.702;2022-11-12T09:41:38;24.60;96.40
43151;DHT22;28755;51.478;5.702;2022-11-12T09:44:16;25.40;96.10
43151;DHT22;28755;51.478;5.702;2022-11-12T09:49:33;24.80;94.70
43151;DHT22;28755;51.478;5.702;2022-11-12T09:52:04;23.80;95.60
43151;DHT22;28755;51.478;5.702;2022-11-12T09:54:33;23.80;96.00
43151;DHT22;28755;51.478;5.702;2022-11-12T09:56:59;24.40;95.50
43151;DHT22;28755;51.478;5.702;2022-11-12T09:59:29;24.70;95.10
43151;DHT22;28755;51.478;5.702;2022-11-12T10:05:24;24.90;94.10
43151;DHT22;28755;51.478;5.702;2022-11-12T10:08:15;25.10;94.30
43151;DHT22;28755;51.478;5.702;2022-11-12T10:10:52;25.30;94.10
43151;DHT22;28755;51.478;5.702;2022-11-12T10:24:37;25.00;94.10
43151;DHT22;28755;51.478;5.702;2022-11-12T10:27:21;25.20;94.50
43151;DHT22;28755;51.478;5.702;2022-11-12T10:30:02;26.00;94.10
43151;DHT22;28755;51.478;5.702;2022-11-12T10:32:28;26.30;93.80
43151;DHT22;28755;51.478;5.702;2022-11-12T10:34:54;26.40;93.90
43151;DHT22;28755;51.478;5.702;2022-11-12T10:37:35;26.00;93.10
43151;DHT22;28755;51.478;5.702;2022-11-12T10:40:34;25.70;93.10
43151;DHT22;28755;51.478;5.702;2022-11-12T10:43:02;25.70;92.60
43151;DHT22;28755;51.478;5.702;2022-11-12T10:45:28;25.90;92.80
43151;DHT22;28755;51.478;5.702;2022-11-12T10:47:54;26.40;92.60
43151;DHT22;28755;51.478;5.702;2022-11-12T10:52:55;26.70;92.10
43151;DHT22;28755;51.478;5.702;2022-11-12T10:55:24;26.40;92.20
43151;DHT22;28755;51.478;5.702;2022-11-12T11:00:27;26.90;92.20
43151;DHT22;28755;51.478;5.702;2022-11-12T11:02:54;26.40;91.90
43151;DHT22;28755;51.478;5.702;2022-11-12T11:05:33;26.90;92.10
43151;DHT22;28755;51.478;5.702;2022-11-12T11:07:59;27.60;91.70
43151;DHT22;28755;51.478;5.702;2022-11-12T11:10:33;27.90;91.80
43151;DHT22;28755;51.478;5.702;2022-11-12T11:13:19;28.40;91.20
43151;DHT22;28755;51.478;5.702;2022-11-12T11:16:06;28.20;90.90
43151;DHT22;28755;51.478;5.702;2022-11-12T11:18:34;28.00;90.60
43151;DHT22;28755;51.478;5.702;2022-11-12T11:23:58;27.60;90.40
43151;DHT22;28755;51.478;5.702;2022-11-12T11:29:40;27.50;90.10
43151;DHT22;28755;51.478;5.702;2022-11-12T11:37:30;27.00;90.40
43151;DHT22;28755;51.478;5.702;2022-11-12T11:43:21;27.80;89.60
43151;DHT22;28755;51.478;5.702;2022-11-12T11:51:48;26.60;90.20
43151;DHT22;28755;51.478;5.702;2022-11-12T11:54:30;26.20;90.70
43151;DHT22;28755;51.478;5.702;2022-11-12T11:57:08;26.60;90.50
43151;DHT22;28755;51.478;5.702;2022-11-12T12:05:04;27.90;90.20
43151;DHT22;28755;51.478;5.702;2022-11-12T12:10:21;29.10;88.80
43151;DHT22;28755;51.478;5.702;2022-11-12T12:13:02;29.20;88.10
43151;DHT22;28755;51.478;5.702;2022-11-12T12:15:59;28.80;88.60
43151;DHT22;28755;51.478;5.702;2022-11-12T12:21:29;26.90;90.10
43151;DHT22;28755;51.478;5.702;2022-11-12T12:24:16;26.50;90.20
43151;DHT22;28755;51.478;5.702;2022-11-12T12:26:52;26.40;90.00
43151;DHT22;28755;51.478;5.702;2022-11-12T12:29:43;26.10;90.40
43151;DHT22;28755;51.478;5.702;2022-11-12T12:32:44;26.80;90.00
43151;DHT22;28755;51.478;5.702;2022-11-12T12:35:53;26.00;89.90
43151;DHT22;28755;51.478;5.702;2022-11-12T12:38:40;24.50;91.20
43151;DHT22;28755;51.478;5.702;2022-11-12T12:41:20;23.40;92.70
43151;DHT22;28755;51.478;5.702;2022-11-12T12:43:54;22.80;93.90
43151;DHT22;28755;51.478;5.702;2022-11-12T12:46:24;22.30;94.80
43151;DHT22;28755;51.478;5.702;2022-11-12T12:48:52;22.40;95.40
43151;DHT22;28755;51.478;5.702;2022-11-12T12:51:19;23.10;95.10
43151;DHT22;28755;51.478;5.702;2022-11-12T12:53:45;24.10;93.70
43151;DHT22;28755;51.478;5.702;2022-11-12T13:03:56;23.70;93.30
43151;DHT22;28755;51.478;5.702;2022-11-12T13:06:25;23.30;93.90
43151;DHT22;28755;51.478;5.702;2022-11-12T13:08:59;23.20;94.20
43151;DHT22;28755;51.478;5.702;2022-11-12T13:32:53;25.40;91.90
43151;DHT22;28755;51.478;5.702;2022-11-12T13:35:38;24.90;92.80
43151;DHT22;28755;51.478;5.702;2022-11-12T13:43:32;22.30;95.10
43151;DHT22;28755;51.478;5.702;2022-11-12T13:51:03;21.50;96.80
43151;DHT22;28755;51.478;5.702;2022-11-12T13:53:31;21.20;97.50
43151;DHT22;28755;51.478;5.702;2022-11-12T13:55:57;20.90;98.10
43151;DHT22;28755;51.478;5.702;2022-11-12T13:58:32;20.70;98.80
43151;DHT22;28755;51.478;5.702;2022-11-12T14:01:00;20.40;99.50
43151;DHT22;28755;51.478;5.702;2022-11-12T14:03:46;20.10;99.90
43151;DHT22;28755;51.478;5.702;2022-11-12T14:06:27;20.00;99.90
43151;DHT22;28755;51.478;5.702;2022-11-12T14:11:34;20.10;99.90
43151;DHT22;28755;51.478;5.702;2022-11-12T14:14:50;19.80;99.90
43151;DHT22;28755;51.478;5.702;2022-11-12T14:22:12;19.00;99.90
43151;DHT22;28755;51.478;5.702;2022-11-12T14:24:39;18.90;99.90
43151;DHT22;28755;51.478;5.702;2022-11-12T14:27:21;18.70;99.90
43151;DHT22;28755;51.478;5.702;2022-11-12T14:29:46;18.60;99.90
43151;DHT22;28755;51.478;5.702;2022-11-12T14:32:12;18.30;99.90
43151;DHT22;28755;51.478;5.702;2022-11-12T14:34:38;18.10;99.90
43151;DHT22;28755;51.478;5.702;2022-11-12T14:37:03;18.00;99.90
43151;DHT22;28755;51.478;5.702;2022-11-12T14:39:29;18.00;99.90
43151;DHT22;28755;51.478;5.702;2022-11-12T14:41:56;17.90;99.90
43151;DHT22;28755;51.478;5.702;2022-11-12T14:44:35;17.80;99.90
43151;DHT22;28755;51.478;5.702;2022-11-12T14:47:02;17.70;99.90
43151;DHT22;28755;51.478;5.702;2022-11-12T14:49:42;17.70;99.90
43151;DHT22;28755;51.478;5.702;2022-11-12T14:52:17;17.60;99.90
43151;DHT22;28755;51.478;5.702;2022-11-12T14:54:49;17.50;99.90
43151;DHT22;28755;51.478;5.702;2022-11-12T14:57:20;17.30;99.90
43151;DHT22;28755;51.478;5.702;2022-11-12T14:59:47;17.30;99.90
43151;DHT22;28755;51.478;5.702;2022-11-12T15:02:16;17.30;99.90
43151;DHT22;28755;51.478;5.702;2022-11-12T15:04:58;17.20;99.90
43151;DHT22;28755;51.478;5.702;2022-11-12T15:07:29;17.10;99.90
43151;DHT22;28755;51.478;5.702;2022-11-12T15:09:56;17.00;99.90
43151;DHT22;28755;51.478;5.702;2022-11-12T15:12:24;17.00;99.90
43151;DHT22;28755;51.478;5.702;2022-11-12T15:14:51;16.90;99.90
43151;DHT22;28755;51.478;5.702;2022-11-12T15:17:33;16.90;99.90
43151;DHT22;28755;51.478;5.702;2022-11-12T15:20:05;16.70;99.90
43151;DHT22;28755;51.478;5.702;2022-11-12T15:22:31;16.60;99.90
43151;DHT22;28755;51.478;5.702;2022-11-12T15:25:24;16.50;99.90
43151;DHT22;28755;51.478;5.702;2022-11-12T15:27:50;16.40;99.90
43151;DHT22;28755;51.478;5.702;2022-11-12T15:30:25;16.20;99.90
43151;DHT22;28755;51.478;5.702;2022-11-12T15:35:37;16.10;99.90
43151;DHT22;28755;51.478;5.702;2022-11-12T15:38:13;16.10;99.90
43151;DHT22;28755;51.478;5.702;2022-11-12T15:40:41;15.90;99.90
43151;DHT22;28755;51.478;5.702;2022-11-12T15:43:16;15.70;99.90
43151;DHT22;28755;51.478;5.702;2022-11-12T15:45:45;15.50;99.90
43151;DHT22;28755;51.478;5.702;2022-11-12T15:48:11;15.40;99.90
43151;DHT22;28755;51.478;5.702;2022-11-12T15:50:37;15.30;99.90
43151;DHT22;28755;51.478;5.702;2022-11-12T15:53:03;15.00;99.90
43151;DHT22;28755;51.478;5.702;2022-11-12T15:55:29;15.00;99.90
43151;DHT22;28755;51.478;5.702;2022-11-12T15:57:55;14.90;99.90
43151;DHT22;28755;51.478;5.702;2022-11-12T16:00:23;14.80;99.90
43151;DHT22;28755;51.478;5.702;2022-11-12T16:02:58;14.60;99.90
43151;DHT22;28755;51.478;5.702;2022-11-12T16:05:26;14.60;99.90
43151;DHT22;28755;51.478;5.702;2022-11-12T16:07:52;14.50;99.90
43151;DHT22;28755;51.478;5.702;2022-11-12T16:10:18;14.40;99.90
43151;DHT22;28755;51.478;5.702;2022-11-12T16:12:45;14.20;99.90
43151;DHT22;28755;51.478;5.702;2022-11-12T16:15:19;14.00;99.90
43151;DHT22;28755;51.478;5.702;2022-11-12T16:17:47;13.90;99.90
43151;DHT22;28755;51.478;5.702;2022-11-12T16:22:47;13.60;99.90
43151;DHT22;28755;51.478;5.702;2022-11-12T16:25:13;13.60;99.90
43151;DHT22;28755;51.478;5.702;2022-11-12T16:27:39;13.50;99.90
43151;DHT22;28755;51.478;5.702;2022-11-12T16:30:12;13.40;99.90
43151;DHT22;28755;51.478;5.702;2022-11-12T16:32:38;13.30;99.90
43151;DHT22;28755;51.478;5.702;2022-11-12T16:35:04;13.30;99.90
43151;DHT22;28755;51.478;5.702;2022-11-12T16:37:30;13.20;99.90
43151;DHT22;28755;51.478;5.702;2022-11-12T16:39:56;13.10;99.90
43151;DHT22;28755;51.478;5.702;2022-11-12T16:42:21;13.00;99.90
43151;DHT22;28755;51.478;5.702;2022-11-12T16:44:47;12.90;99.90
43151;DHT22;28755;51.478;5.702;2022-11-12T16:47:12;12.80;99.90
43151;DHT22;28755;51.478;5.702;2022-11-12T16:49:38;12.70;99.90
43151;DHT22;28755;51.478;5.702;2022-11-12T16:52:05;12.70;99.90
43151;DHT22;28755;51.478;5.702;2022-11-12T16:54:30;12.60;99.90
43151;DHT22;28755;51.478;5.702;2022-11-12T16:56:56;12.50;99.90
43151;DHT22;28755;51.478;5.702;2022-11-12T16:59:21;12.50;99.90
43151;DHT22;28755;51.478;5.702;2022-11-12T17:01:47;12.40;99.90
43151;DHT22;28755;51.478;5.702;2022-11-12T17:04:12;12.40;99.90
43151;DHT22;28755;51.478;5.702;2022-11-12T17:06:39;12.30;99.90
43151;DHT22;28755;51.478;5.702;2022-11-12T17:09:06;12.20;99.90
43151;DHT22;28755;51.478;5.702;2022-11-12T17:11:33;12.10;99.90
43151;DHT22;28755;51.478;5.702;2022-11-12T17:14:00;12.10;99.90
43151;DHT22;28755;51.478;5.702;2022-11-12T17:16:26;12.00;99.90
43151;DHT22;28755;51.478;5.702;2022-11-12T17:18:52;11.90;99.90
43151;DHT22;28755;51.478;5.702;2022-11-12T17:21:18;11.90;99.90
43151;DHT22;28755;51.478;5.702;2022-11-12T17:23:44;11.90;99.90
43151;DHT22;28755;51.478;5.702;2022-11-12T17:26:13;11.80;99.90
43151;DHT22;28755;51.478;5.702;2022-11-12T17:28:38;11.80;99.90
43151;DHT22;28755;51.478;5.702;2022-11-12T17:31:11;11.60;99.90
43151;DHT22;28755;51.478;5.702;2022-11-12T17:33:43;11.60;99.90
43151;DHT22;28755;51.478;5.702;2022-11-12T17:36:12;11.70;99.90
43151;DHT22;28755;51.478;5.702;2022-11-12T17:38:38;11.70;99.90
43151;DHT22;28755;51.478;5.702;2022-11-12T17:41:04;11.60;99.90